Terminal Aerodrome Forecast
Issued by NWS

Current Version | Previous Version | Text Only | Print | Product List | Glossary On
Versions: 1 2 3 4 5 6 7 8 9 10 11 12 13 14 15 16 17 18 19 20 21 22 23 24 25 26 27 28 29 30
000
FTUS41 KOKX 030300 AAB
TAFHPN
TAF AMD
KHPN 030304Z 0303/0324 25010G15KT P6SM SCT060 BKN200
     FM030500 29008KT P6SM FEW060 SCT200
      TEMPO 0305/0307 28010G15KT
     FM031000 32009KT P6SM SCT250
      AMD NOT SKED=

USA.gov is the U.S. government's official web portal to all federal, state and local government web resources and services.